createdAt,value
2023-01-15T00:01:23.756Z,0.88
2023-01-15T00:03:52.412Z,0.57
2023-01-15T00:06:22.314Z,0.73
2023-01-15T00:08:53.142Z,0.65
2023-01-15T00:11:21.674Z,0.70
2023-01-15T00:13:50.103Z,0.80
2023-01-15T00:16:19.644Z,0.73
2023-01-15T00:18:51.376Z,0.60
2023-01-15T00:21:19.936Z,0.90
2023-01-15T00:24:07.775Z,0.90
2023-01-15T00:26:53.884Z,0.80
2023-01-15T00:29:22.316Z,0.60
2023-01-15T00:31:54.908Z,0.65
2023-01-15T00:34:23.221Z,0.60
2023-01-15T00:36:51.794Z,1.10
2023-01-15T00:39:21.595Z,0.68
2023-01-15T00:41:49.901Z,0.60
2023-01-15T00:44:23.833Z,0.60
2023-01-15T00:46:52.194Z,0.70
2023-01-15T00:49:20.622Z,0.85
2023-01-15T00:51:50.082Z,0.63
2023-01-15T00:54:21.411Z,0.73
2023-01-15T00:56:55.724Z,1.02
2023-01-15T00:59:24.121Z,0.77
2023-01-15T01:01:56.656Z,0.80
2023-01-15T01:04:25.084Z,1.00
2023-01-15T01:06:53.477Z,0.50
2023-01-15T01:09:21.880Z,0.80
2023-01-15T01:11:50.581Z,1.13
2023-01-15T01:14:20.236Z,0.70
2023-01-15T01:16:51.387Z,1.00
2023-01-15T01:19:24.437Z,0.73
2023-01-15T01:21:53.006Z,0.98
2023-01-15T01:24:22.433Z,0.95
2023-01-15T01:26:53.399Z,1.00
2023-01-15T01:29:29.579Z,1.17
2023-01-15T01:31:57.931Z,0.50
2023-01-15T01:34:26.276Z,0.80
2023-01-15T01:36:54.582Z,0.70
2023-01-15T01:39:22.888Z,0.88
2023-01-15T01:41:51.247Z,0.60
2023-01-15T01:44:56.747Z,1.00
2023-01-15T01:47:26.770Z,0.63
2023-01-15T01:49:55.744Z,0.90
2023-01-15T01:52:25.331Z,0.90
2023-01-15T01:54:53.768Z,0.68
2023-01-15T01:57:22.510Z,1.00
2023-01-15T01:59:51.300Z,0.85
2023-01-15T02:02:23.072Z,0.68
2023-01-15T02:04:52.764Z,0.60
2023-01-15T02:07:23.161Z,0.60
2023-01-15T02:09:51.458Z,0.63
2023-01-15T02:12:25.997Z,0.80
2023-01-15T02:14:58.712Z,0.70
2023-01-15T02:17:29.249Z,0.80
2023-01-15T02:20:04.217Z,0.68
2023-01-15T02:22:36.981Z,0.68
2023-01-15T02:25:09.199Z,0.75
2023-01-15T02:27:39.119Z,0.70
2023-01-15T02:30:09.181Z,0.80
2023-01-15T02:32:40.578Z,0.60
2023-01-15T02:35:11.366Z,0.68
2023-01-15T02:37:42.511Z,0.73
2023-01-15T02:40:13.509Z,0.80
2023-01-15T02:42:44.411Z,0.95
2023-01-15T02:45:12.772Z,0.63
2023-01-15T02:47:41.956Z,0.85
2023-01-15T02:50:14.010Z,0.70
2023-01-15T02:52:43.525Z,0.70
2023-01-15T02:55:13.478Z,1.10
2023-01-15T02:57:43.172Z,0.63
2023-01-15T03:00:13.153Z,0.90
2023-01-15T03:02:48.096Z,0.70
2023-01-15T03:05:19.459Z,0.82
2023-01-15T03:07:49.133Z,0.77
2023-01-15T03:10:20.702Z,1.10
2023-01-15T03:13:06.227Z,0.60
2023-01-15T03:15:58.655Z,1.17
2023-01-15T03:18:28.074Z,0.57
2023-01-15T03:20:59.049Z,0.68
2023-01-15T03:23:30.346Z,0.77
2023-01-15T03:26:01.514Z,0.88
2023-01-15T03:28:32.868Z,0.80
2023-01-15T03:31:05.203Z,0.80
2023-01-15T03:33:35.122Z,0.85
2023-01-15T03:36:06.595Z,0.73
2023-01-15T03:38:35.951Z,0.80
2023-01-15T03:41:18.915Z,0.70
2023-01-15T03:43:53.331Z,0.68
2023-01-15T03:46:30.360Z,0.70
2023-01-15T03:49:02.486Z,0.65
2023-01-15T03:51:38.504Z,0.73
2023-01-15T03:54:14.110Z,0.90
2023-01-15T03:56:48.180Z,0.68
2023-01-15T03:59:18.823Z,0.63
2023-01-15T04:01:48.999Z,0.70
2023-01-15T04:04:17.424Z,0.55
2023-01-15T04:06:45.803Z,0.70
2023-01-15T04:09:14.384Z,0.63
2023-01-15T04:11:42.713Z,0.70
2023-01-15T04:14:11.681Z,0.52
2023-01-15T04:16:41.520Z,0.80
2023-01-15T04:19:12.650Z,0.63
2023-01-15T04:21:43.728Z,0.65
2023-01-15T04:24:12.091Z,0.70
2023-01-15T04:26:40.378Z,0.63
2023-01-15T04:29:08.737Z,0.80
2023-01-15T04:31:37.093Z,0.70
2023-01-15T04:34:06.756Z,0.68
2023-01-15T04:36:36.297Z,0.60
2023-01-15T04:39:09.115Z,0.88
2023-01-15T04:41:54.971Z,0.60
2023-01-15T04:44:27.488Z,0.60
2023-01-15T04:46:57.347Z,0.90
2023-01-15T04:49:28.855Z,1.00
2023-01-15T04:51:57.173Z,0.60
2023-01-15T04:54:25.601Z,0.52
2023-01-15T04:56:54.760Z,0.80
2023-01-15T04:59:24.537Z,0.82
2023-01-15T05:02:03.847Z,0.85
2023-01-15T05:04:35.338Z,0.60
2023-01-15T05:07:04.109Z,1.20
2023-01-15T05:09:32.720Z,0.73
2023-01-15T05:12:01.063Z,0.82
2023-01-15T05:14:29.483Z,0.90
2023-01-15T05:16:57.811Z,0.90
2023-01-15T05:19:26.158Z,1.20
2023-01-15T05:22:10.723Z,0.50
2023-01-15T05:24:39.100Z,0.85
2023-01-15T05:27:07.448Z,0.70
2023-01-15T05:29:41.599Z,0.63
2023-01-15T05:32:12.042Z,0.70
2023-01-15T05:34:40.424Z,0.50
2023-01-15T05:37:08.779Z,0.40
2023-01-15T05:39:38.601Z,0.57
2023-01-15T05:42:07.864Z,1.00
2023-01-15T05:44:37.995Z,0.60
2023-01-15T05:47:07.633Z,0.50
2023-01-15T05:49:36.000Z,0.50
2023-01-15T05:52:08.272Z,0.47
2023-01-15T05:54:38.108Z,0.85
2023-01-15T05:57:06.455Z,0.60
2023-01-15T05:59:34.827Z,0.55
2023-01-15T06:02:06.013Z,0.50
2023-01-15T06:04:34.359Z,0.52
2023-01-15T06:07:03.523Z,0.73
2023-01-15T06:09:31.857Z,0.68
2023-01-15T06:12:01.546Z,0.93
2023-01-15T06:14:29.848Z,0.52
2023-01-15T06:16:59.420Z,0.65
2023-01-15T06:19:28.954Z,0.60
2023-01-15T06:21:57.302Z,0.60
2023-01-15T06:24:25.728Z,0.47
2023-01-15T06:26:54.026Z,0.55
2023-01-15T06:29:23.735Z,0.50
2023-01-15T06:31:52.172Z,0.60
2023-01-15T06:34:23.634Z,0.55
2023-01-15T06:36:51.984Z,0.52
2023-01-15T06:39:20.352Z,0.75
2023-01-15T06:42:06.440Z,0.47
2023-01-15T06:44:53.915Z,0.50
2023-01-15T06:47:24.659Z,0.50
2023-01-15T06:49:54.639Z,0.63
2023-01-15T06:52:23.302Z,0.50
2023-01-15T06:54:52.081Z,0.43
2023-01-15T06:57:20.434Z,0.60
2023-01-15T06:59:50.298Z,0.75
2023-01-15T07:02:18.798Z,0.50
2023-01-15T07:04:47.816Z,0.43
2023-01-15T07:07:16.271Z,0.50
2023-01-15T07:09:44.641Z,0.73
2023-01-15T07:12:13.039Z,0.68
2023-01-15T07:14:41.395Z,0.73
2023-01-15T07:17:11.109Z,0.63
2023-01-15T07:19:39.469Z,0.40
2023-01-15T07:22:08.157Z,0.68
2023-01-15T07:24:36.555Z,0.40
2023-01-15T07:27:05.090Z,0.30
2023-01-15T07:29:33.417Z,0.40
2023-01-15T07:32:01.714Z,0.70
2023-01-15T07:34:33.542Z,0.60
2023-01-15T07:37:01.885Z,0.63
2023-01-15T07:39:31.558Z,0.50
2023-01-15T07:42:17.821Z,0.70
2023-01-15T07:45:03.788Z,0.70
2023-01-15T07:47:49.901Z,0.50
2023-01-15T07:50:21.276Z,0.55
2023-01-15T07:52:51.958Z,0.45
2023-01-15T07:55:21.337Z,0.60
2023-01-15T07:57:49.643Z,0.40
2023-01-15T08:00:21.578Z,0.40
2023-01-15T08:02:50.845Z,0.70
2023-01-15T08:05:20.882Z,0.63
2023-01-15T08:07:49.979Z,0.60
2023-01-15T08:10:19.601Z,0.70
2023-01-15T08:13:07.872Z,0.52
2023-01-15T08:15:39.080Z,0.52
2023-01-15T08:18:09.888Z,0.40
2023-01-15T08:20:39.614Z,0.40
2023-01-15T08:23:08.099Z,0.52
2023-01-15T08:25:36.460Z,0.47
2023-01-15T08:28:07.983Z,0.45
2023-01-15T08:30:36.531Z,0.50
2023-01-15T08:33:04.939Z,0.50
2023-01-15T08:35:34.259Z,0.50
2023-01-15T08:38:09.785Z,0.50
2023-01-15T08:40:58.071Z,0.47
2023-01-15T08:43:29.148Z,0.60
2023-01-15T08:45:58.951Z,0.50
2023-01-15T08:48:28.079Z,0.50
2023-01-15T08:50:56.762Z,0.30
2023-01-15T08:53:28.553Z,0.45
2023-01-15T08:55:57.133Z,0.40
2023-01-15T08:58:25.427Z,0.65
2023-01-15T09:00:53.826Z,0.55
2023-01-15T09:03:22.168Z,0.40
2023-01-15T09:05:50.473Z,0.25
2023-01-15T09:08:20.336Z,0.20
2023-01-15T09:10:50.104Z,0.40
2023-01-15T09:13:18.400Z,0.60
2023-01-15T09:15:46.739Z,0.80
2023-01-15T09:18:18.979Z,0.65
2023-01-15T09:20:48.886Z,0.65
2023-01-15T09:23:17.264Z,0.88
2023-01-15T09:25:59.791Z,1.00
2023-01-15T09:28:28.843Z,0.60
2023-01-15T09:30:57.212Z,0.65
2023-01-15T09:33:31.760Z,0.93
2023-01-15T09:36:04.094Z,0.70
2023-01-15T09:38:34.401Z,0.65
2023-01-15T09:41:08.523Z,0.90
2023-01-15T09:43:50.088Z,0.70
2023-01-15T09:46:23.224Z,0.70
2023-01-15T09:48:55.393Z,0.57
2023-01-15T09:51:28.786Z,0.73
2023-01-15T09:54:06.809Z,0.75
2023-01-15T09:56:36.849Z,1.05
2023-01-15T09:59:22.367Z,1.23
2023-01-15T10:01:52.885Z,1.10
2023-01-15T10:04:31.952Z,0.90
2023-01-15T10:07:07.219Z,1.13
2023-01-15T10:09:37.643Z,0.90
2023-01-15T10:12:30.187Z,1.52
2023-01-15T10:15:01.377Z,1.30
2023-01-15T10:17:34.874Z,1.33
2023-01-15T10:20:06.990Z,1.20
2023-01-15T10:22:46.154Z,1.65
2023-01-15T10:25:16.899Z,1.20
2023-01-15T10:27:49.643Z,1.30
2023-01-15T10:30:18.808Z,1.23
2023-01-15T10:33:06.821Z,1.77
2023-01-15T10:35:43.074Z,1.83
2023-01-15T10:38:15.524Z,1.33
2023-01-15T10:41:16.699Z,1.67
2023-01-15T10:43:50.028Z,1.42
2023-01-15T10:46:37.333Z,1.27
2023-01-15T10:49:09.067Z,1.30
2023-01-15T10:51:41.507Z,1.30
2023-01-15T10:54:15.841Z,1.10
2023-01-15T10:56:45.608Z,1.40
2023-01-15T10:59:17.790Z,1.20
2023-01-15T11:01:46.459Z,0.95
2023-01-15T11:04:17.954Z,1.05
2023-01-15T11:06:46.294Z,1.45
2023-01-15T11:09:20.585Z,1.13
2023-01-15T11:12:12.893Z,1.70
2023-01-15T11:15:03.657Z,1.15
2023-01-15T11:17:55.226Z,1.23
2023-01-15T11:20:29.098Z,0.90
2023-01-15T11:22:57.533Z,1.23
2023-01-15T11:25:29.773Z,1.40
2023-01-15T11:27:59.070Z,0.85
2023-01-15T11:30:30.632Z,1.00
2023-01-15T11:32:59.519Z,1.02
2023-01-15T11:35:27.827Z,0.80
2023-01-15T11:38:12.460Z,1.38
2023-01-15T11:40:40.787Z,1.13
2023-01-15T11:43:38.286Z,1.30
2023-01-15T11:46:38.195Z,0.82
2023-01-15T11:49:31.008Z,1.75
2023-01-15T11:51:59.411Z,0.80
2023-01-15T11:54:27.796Z,1.00
2023-01-15T11:56:56.692Z,0.77
2023-01-15T11:59:25.007Z,0.90
2023-01-15T12:01:59.120Z,1.00
2023-01-15T12:04:34.216Z,0.98
2023-01-15T12:07:02.990Z,0.90
2023-01-15T12:09:45.711Z,0.80
2023-01-15T12:12:20.869Z,0.88
2023-01-15T12:15:15.407Z,0.63
2023-01-15T12:17:54.146Z,0.77
2023-01-15T12:20:24.585Z,1.00
2023-01-15T12:23:03.663Z,1.25
2023-01-15T12:25:40.822Z,0.80
2023-01-15T12:28:13.266Z,0.68
2023-01-15T12:30:45.189Z,0.88
2023-01-15T12:33:21.768Z,0.60
2023-01-15T12:35:56.664Z,1.00
2023-01-15T12:38:32.184Z,0.90
2023-01-15T12:41:01.855Z,0.95
2023-01-15T12:43:47.873Z,0.90
2023-01-15T12:46:17.623Z,0.55
2023-01-15T12:48:51.281Z,0.77
2023-01-15T12:51:24.482Z,0.70
2023-01-15T12:53:54.062Z,0.77
2023-01-15T12:56:24.847Z,0.60
2023-01-15T12:58:54.426Z,0.80
2023-01-15T13:01:25.195Z,1.00
2023-01-15T13:04:01.349Z,0.65
2023-01-15T13:06:32.524Z,1.10
2023-01-15T13:09:03.213Z,0.68
2023-01-15T13:11:31.631Z,0.85
2023-01-15T13:14:04.636Z,0.70
2023-01-15T13:16:39.514Z,0.63
2023-01-15T13:19:34.435Z,0.70
2023-01-15T13:22:05.068Z,0.75
2023-01-15T13:24:56.763Z,0.68
2023-01-15T13:27:30.185Z,0.88
2023-01-15T13:30:06.905Z,0.60
2023-01-15T13:32:35.633Z,0.73
2023-01-15T13:35:09.006Z,0.70
2023-01-15T13:37:38.465Z,0.70
2023-01-15T13:40:11.401Z,0.60
2023-01-15T13:42:40.728Z,1.58
2023-01-15T13:45:27.966Z,0.82
2023-01-15T13:47:59.950Z,0.77
2023-01-15T13:50:31.648Z,0.90
2023-01-15T13:53:07.451Z,0.77
2023-01-15T13:55:36.972Z,1.00
2023-01-15T13:58:24.635Z,0.68
2023-01-15T14:03:37.571Z,0.65
2023-01-15T14:06:08.307Z,0.85
2023-01-15T14:08:40.964Z,0.90
2023-01-15T14:11:35.639Z,1.08
2023-01-15T14:14:19.460Z,0.65
2023-01-15T14:16:53.862Z,0.60
2023-01-15T14:19:51.228Z,1.05
2023-01-15T14:22:41.533Z,0.77
2023-01-15T14:25:18.664Z,0.73
2023-01-15T14:30:32.330Z,0.60
2023-01-15T14:33:05.961Z,0.68
2023-01-15T14:35:41.111Z,0.75
2023-01-15T14:38:14.626Z,1.05
2023-01-15T14:40:53.542Z,0.70
2023-01-15T14:43:22.469Z,0.50
2023-01-15T14:45:57.000Z,0.60
2023-01-15T14:48:37.455Z,0.88
2023-01-15T14:51:09.684Z,0.80
2023-01-15T14:53:43.110Z,0.93
2023-01-15T14:56:17.799Z,0.80
2023-01-15T14:58:49.859Z,0.77
2023-01-15T15:01:44.310Z,0.60
2023-01-15T15:04:24.179Z,0.63
2023-01-15T15:06:54.707Z,0.47
2023-01-15T15:09:29.828Z,0.60
2023-01-15T15:12:21.684Z,0.73
2023-01-15T15:14:55.627Z,0.95
2023-01-15T15:17:33.520Z,0.57
2023-01-15T15:20:08.756Z,0.60
2023-01-15T15:22:38.772Z,0.65
2023-01-15T15:25:11.863Z,0.60
2023-01-15T15:27:40.272Z,0.60
2023-01-15T15:30:11.729Z,0.60
2023-01-15T15:32:41.223Z,1.00
2023-01-15T15:35:22.772Z,0.50
2023-01-15T15:37:51.151Z,0.60
2023-01-15T15:40:21.579Z,0.80
2023-01-15T15:43:10.007Z,0.77
2023-01-15T15:45:56.122Z,0.85
2023-01-15T15:48:42.662Z,0.60
2023-01-15T15:51:32.868Z,0.70
2023-01-15T15:54:05.587Z,0.80
2023-01-15T15:56:35.294Z,0.80
2023-01-15T15:59:05.211Z,0.70
2023-01-15T16:01:38.569Z,0.88
2023-01-15T16:04:14.488Z,0.65
2023-01-15T16:06:42.964Z,0.60
2023-01-15T16:09:11.276Z,0.85
2023-01-15T16:11:41.102Z,0.45
2023-01-15T16:14:12.441Z,0.73
2023-01-15T16:16:40.756Z,0.50
2023-01-15T16:19:16.329Z,0.68
2023-01-15T16:21:44.679Z,0.75
2023-01-15T16:24:24.067Z,0.75
2023-01-15T16:27:00.885Z,0.70
2023-01-15T16:29:31.693Z,0.80
2023-01-15T16:32:03.507Z,0.68
2023-01-15T16:34:33.173Z,0.77
2023-01-15T16:37:01.881Z,0.85
2023-01-15T16:39:31.500Z,0.98
2023-01-15T16:42:02.363Z,0.70
2023-01-15T16:44:37.060Z,0.60
2023-01-15T16:47:06.809Z,0.70
2023-01-15T16:49:35.468Z,0.50
2023-01-15T16:52:06.796Z,0.43
2023-01-15T16:54:44.756Z,0.88
2023-01-15T16:57:32.128Z,0.65
2023-01-15T17:00:12.538Z,0.50
2023-01-15T17:02:45.684Z,0.50
2023-01-15T17:05:21.823Z,0.57
2023-01-15T17:07:50.674Z,0.70
2023-01-15T17:10:24.401Z,0.50
2023-01-15T17:12:57.357Z,1.00
2023-01-15T17:15:41.056Z,0.70
2023-01-15T17:18:29.304Z,0.82
2023-01-15T17:20:58.068Z,1.02
2023-01-15T17:23:31.251Z,0.52
2023-01-15T17:26:01.395Z,0.50
2023-01-15T17:28:31.123Z,0.80
2023-01-15T17:31:00.593Z,0.90
2023-01-15T17:33:29.065Z,0.60
2023-01-15T17:36:01.170Z,0.80
2023-01-15T17:38:29.516Z,0.60
2023-01-15T17:41:00.618Z,0.80
2023-01-15T17:43:30.876Z,0.40
2023-01-15T17:46:03.536Z,0.45
2023-01-15T17:48:31.924Z,0.77
2023-01-15T17:51:01.657Z,0.60
2023-01-15T17:53:30.040Z,0.77
2023-01-15T17:56:16.004Z,0.50
2023-01-15T17:59:03.296Z,0.60
2023-01-15T18:01:49.475Z,0.60
2023-01-15T18:04:41.955Z,0.65
2023-01-15T18:07:10.599Z,0.90
2023-01-15T18:09:39.342Z,0.68
2023-01-15T18:12:08.505Z,0.50
2023-01-15T18:14:38.247Z,0.80
2023-01-15T18:17:12.161Z,0.47
2023-01-15T18:19:40.592Z,0.65
2023-01-15T18:22:10.429Z,0.90
2023-01-15T18:24:38.930Z,0.50
2023-01-15T18:27:07.371Z,0.45
2023-01-15T18:29:39.941Z,0.77
2023-01-15T18:32:09.831Z,0.60
2023-01-15T18:34:38.263Z,0.52
2023-01-15T18:37:06.723Z,0.60
2023-01-15T18:39:36.979Z,0.57
2023-01-15T18:42:23.504Z,0.35
2023-01-15T18:45:09.475Z,0.47
2023-01-15T18:47:41.010Z,0.70
2023-01-15T18:50:11.070Z,0.55
2023-01-15T18:53:00.167Z,0.40
2023-01-15T18:55:28.580Z,0.50
2023-01-15T18:57:57.065Z,0.45
2023-01-15T19:00:28.632Z,0.65
2023-01-15T19:02:59.083Z,0.35
2023-01-15T19:05:27.455Z,0.30
2023-01-15T19:07:58.855Z,0.50
2023-01-15T19:10:27.361Z,0.32
2023-01-15T19:12:57.621Z,0.40
2023-01-15T19:15:45.715Z,0.77
2023-01-15T19:18:33.061Z,0.38
2023-01-15T19:21:03.332Z,0.65
2023-01-15T19:23:31.650Z,0.40
2023-01-15T19:26:01.198Z,0.45
2023-01-15T19:28:33.613Z,0.40
2023-01-15T19:31:19.507Z,0.40
2023-01-15T19:33:49.582Z,0.73
2023-01-15T19:36:17.972Z,0.43
2023-01-15T19:38:46.319Z,0.45
2023-01-15T19:41:32.353Z,0.30
2023-01-15T19:44:20.552Z,0.30
2023-01-15T19:47:06.474Z,0.45
2023-01-15T19:49:55.258Z,0.50
2023-01-15T19:52:35.858Z,0.20
2023-01-15T19:55:04.507Z,0.80
2023-01-15T19:57:32.846Z,0.25
2023-01-15T20:00:04.408Z,0.40
2023-01-15T20:02:36.589Z,0.40
2023-01-15T20:05:07.505Z,0.30
2023-01-15T20:07:36.042Z,0.43
2023-01-15T20:10:04.974Z,0.30
2023-01-15T20:12:51.067Z,0.38
2023-01-15T20:15:20.808Z,0.22
2023-01-15T20:17:49.121Z,0.38
2023-01-15T20:20:19.339Z,0.22
2023-01-15T20:22:47.884Z,0.25
2023-01-15T20:25:16.335Z,0.30
2023-01-15T20:27:44.726Z,0.30
2023-01-15T20:30:14.666Z,0.30
2023-01-15T20:32:45.319Z,0.30
2023-01-15T20:35:14.836Z,0.15
2023-01-15T20:37:44.585Z,0.20
2023-01-15T20:40:16.384Z,0.20
2023-01-15T20:43:03.228Z,0.40
2023-01-15T20:45:31.631Z,0.20
2023-01-15T20:48:17.536Z,0.17
2023-01-15T20:51:02.176Z,0.20
2023-01-15T20:53:34.344Z,0.30
2023-01-15T20:56:02.765Z,0.10
2023-01-15T20:58:31.296Z,0.30
2023-01-15T21:01:03.257Z,0.25
2023-01-15T21:03:31.737Z,0.30
2023-01-15T21:06:00.129Z,0.20
2023-01-15T21:08:32.491Z,0.40
2023-01-15T21:11:02.226Z,0.20
2023-01-15T21:13:31.143Z,0.20
2023-01-15T21:16:00.630Z,0.40
2023-01-15T21:18:32.363Z,0.15
2023-01-15T21:21:00.681Z,0.22
2023-01-15T21:23:28.965Z,0.38
2023-01-15T21:26:00.668Z,0.28
2023-01-15T21:28:33.215Z,0.30
2023-01-15T21:31:06.725Z,0.20
2023-01-15T21:33:35.048Z,0.20
2023-01-15T21:36:06.911Z,0.20
2023-01-15T21:38:35.245Z,0.20
2023-01-15T21:41:08.512Z,0.17
2023-01-15T21:43:55.710Z,0.13
2023-01-15T21:46:27.479Z,0.20
2023-01-15T21:48:58.715Z,0.20
2023-01-15T21:51:27.588Z,0.30
2023-01-15T21:54:00.143Z,0.20
2023-01-15T21:56:28.712Z,0.10
2023-01-15T21:58:58.425Z,0.20
2023-01-15T22:01:26.970Z,0.17
2023-01-15T22:03:55.491Z,0.30
2023-01-15T22:06:24.104Z,0.30
2023-01-15T22:08:54.785Z,0.25
2023-01-15T22:11:23.426Z,0.10
2023-01-15T22:13:52.005Z,0.22
2023-01-15T22:16:21.680Z,0.38
2023-01-15T22:18:52.641Z,0.20
2023-01-15T22:21:21.054Z,0.10
2023-01-15T22:23:49.444Z,0.20
2023-01-15T22:26:19.665Z,0.47
2023-01-15T22:28:51.521Z,0.20
2023-01-15T22:31:21.235Z,0.17
2023-01-15T22:33:49.594Z,0.13
2023-01-15T22:36:18.296Z,0.20
2023-01-15T22:38:46.989Z,0.30
2023-01-15T22:41:35.556Z,0.17
2023-01-15T22:44:04.109Z,0.17
2023-01-15T22:46:33.825Z,0.10
2023-01-15T22:49:02.114Z,0.40
2023-01-15T22:51:30.504Z,0.30
2023-01-15T22:53:59.545Z,0.30
2023-01-15T22:56:27.947Z,0.10
2023-01-15T22:59:02.370Z,0.20
2023-01-15T23:01:32.376Z,0.20
2023-01-15T23:04:02.091Z,0.20
2023-01-15T23:06:30.457Z,0.30
2023-01-15T23:08:58.867Z,0.20
2023-01-15T23:11:27.366Z,0.30
2023-01-15T23:13:55.726Z,0.28
2023-01-15T23:16:24.606Z,0.20
2023-01-15T23:18:52.942Z,0.20
2023-01-15T23:21:23.758Z,0.30
2023-01-15T23:23:54.762Z,0.20
2023-01-15T23:26:23.309Z,0.22
2023-01-15T23:28:51.874Z,0.30
2023-01-15T23:31:20.450Z,0.10
2023-01-15T23:33:48.851Z,0.20
2023-01-15T23:36:17.234Z,0.25
2023-01-15T23:38:47.651Z,0.28
2023-01-15T23:41:19.853Z,0.20
2023-01-15T23:44:06.878Z,0.20
2023-01-15T23:46:35.929Z,0.15
2023-01-15T23:49:08.748Z,0.20
2023-01-15T23:51:37.361Z,0.10
2023-01-15T23:54:08.548Z,0.10
2023-01-15T23:56:36.867Z,0.10
2023-01-15T23:59:05.211Z,0.20
